Time;durP1;ratioP1;P1;durP2;ratioP2;P2;SDS_P1;SDS_P2;PMS_P1;PMS_P2;Temp;Humidity;BMP_temperature;BMP_pressure;BME280_temperature;BME280_humidity;BME280_pressure;Samples;Min_cycle;Max_cycle;Signal;HPM_P1;HPM_P2
2023/05/12 00:02:17;;;;;;;6.57;6.07;;;;;;;;;;5038465;28;20096;-66
2023/05/12 00:04:42;;;;;;;7.57;6.38;;;;;;;;;;5036692;28;20619;-65
2023/05/12 00:07:08;;;;;;;6.40;5.90;;;;;;;;;;5030939;28;20119;-65
2023/05/12 00:09:33;;;;;;;6.28;5.78;;;;;;;;;;5038576;28;20380;-66
2023/05/12 00:11:59;;;;;;;8.85;6.00;;;;;;;;;;5036947;28;20477;-66
2023/05/12 00:14:24;;;;;;;6.65;6.05;;;;;;;;;;5034129;28;20041;-64
2023/05/12 00:16:50;;;;;;;6.22;5.55;;;;;;;;;;5036526;28;20050;-65
2023/05/12 00:19:17;;;;;;;6.38;5.85;;;;;;;;;;5037246;28;20076;-66
2023/05/12 00:21:43;;;;;;;6.20;5.70;;;;;;;;;;5034097;28;20033;-66
2023/05/12 00:24:08;;;;;;;6.82;5.95;;;;;;;;;;5038945;28;20032;-66
2023/05/12 00:26:34;;;;;;;6.10;5.60;;;;;;;;;;5036447;28;20034;-65
2023/05/12 00:29:00;;;;;;;6.40;5.82;;;;;;;;;;5037117;28;20017;-66
2023/05/12 00:31:25;;;;;;;6.70;6.10;;;;;;;;;;5016689;28;20697;-65
2023/05/12 00:33:51;;;;;;;7.35;6.68;;;;;;;;;;5034663;28;20029;-65
2023/05/12 00:36:16;;;;;;;6.68;6.20;;;;;;;;;;5019814;28;20686;-65
2023/05/12 00:38:42;;;;;;;6.75;6.25;;;;;;;;;;5038054;28;20040;-65
2023/05/12 00:41:08;;;;;;;7.43;6.10;;;;;;;;;;5023657;28;20033;-65
2023/05/12 00:43:33;;;;;;;6.78;6.18;;;;;;;;;;5013922;28;20055;-65
2023/05/12 00:46:00;;;;;;;6.45;5.95;;;;;;;;;;5022325;28;20423;-65
2023/05/12 00:48:26;;;;;;;6.82;6.32;;;;;;;;;;5020504;28;20045;-65
2023/05/12 00:50:54;;;;;;;6.20;5.75;;;;;;;;;;5037242;28;20499;-65
2023/05/12 00:53:19;;;;;;;6.50;5.90;;;;;;;;;;5003468;28;20514;-66
2023/05/12 00:55:45;;;;;;;5.82;5.40;;;;;;;;;;5019720;28;20028;-66
2023/05/12 00:58:11;;;;;;;5.88;5.47;;;;;;;;;;5018322;28;20041;-66
2023/05/12 01:00:36;;;;;;;6.15;5.60;;;;;;;;;;5038488;28;20586;-66
2023/05/12 01:03:03;;;;;;;6.95;6.32;;;;;;;;;;5024074;28;20040;-65
2023/05/12 01:05:38;;;;;;;7.20;6.55;;;;;;;;;;5025325;28;20103;-66
2023/05/12 01:08:05;;;;;;;6.82;6.28;;;;;;;;;;5021302;28;20041;-66
2023/05/12 01:10:30;;;;;;;6.78;6.18;;;;;;;;;;5023563;28;20457;-66
2023/05/12 01:12:56;;;;;;;7.07;6.38;;;;;;;;;;5024494;28;20548;-66
2023/05/12 01:15:22;;;;;;;7.90;7.20;;;;;;;;;;5023518;28;20044;-66
2023/05/12 01:17:58;;;;;;;8.10;7.38;;;;;;;;;;5024099;28;20039;-66
2023/05/12 01:20:26;;;;;;;7.38;6.68;;;;;;;;;;5024029;28;20049;-66
2023/05/12 01:22:53;;;;;;;7.23;6.53;;;;;;;;;;5043613;28;20064;-66
2023/05/12 01:25:22;;;;;;;13.05;6.95;;;;;;;;;;5023094;28;20029;-65
2023/05/12 01:27:49;;;;;;;6.80;6.22;;;;;;;;;;5023893;28;20079;-65
2023/05/12 01:30:17;;;;;;;6.68;6.18;;;;;;;;;;5022026;28;20076;-66
2023/05/12 01:32:43;;;;;;;8.15;7.40;;;;;;;;;;5025016;28;20029;-65
2023/05/12 01:35:09;;;;;;;7.15;6.45;;;;;;;;;;5022071;28;20041;-65
2023/05/12 01:37:37;;;;;;;7.07;6.38;;;;;;;;;;5037172;28;20036;-66
2023/05/12 01:40:04;;;;;;;6.90;6.30;;;;;;;;;;5021930;28;20651;-66
2023/05/12 01:42:30;;;;;;;6.70;6.13;;;;;;;;;;5021760;28;20043;-66
2023/05/12 01:44:56;;;;;;;7.20;6.60;;;;;;;;;;5017248;28;20042;-65
2023/05/12 01:47:22;;;;;;;6.65;6.15;;;;;;;;;;5024286;28;20029;-65
2023/05/12 01:49:57;;;;;;;7.20;6.60;;;;;;;;;;5025232;28;20039;-66
2023/05/12 01:52:23;;;;;;;6.68;6.10;;;;;;;;;;5020710;28;20120;-66
2023/05/12 01:54:50;;;;;;;6.78;6.18;;;;;;;;;;5041525;28;20035;-65
2023/05/12 01:57:16;;;;;;;6.40;5.90;;;;;;;;;;5023794;28;20040;-65
2023/05/12 01:59:42;;;;;;;6.85;6.22;;;;;;;;;;5024309;28;20040;-66
2023/05/12 02:02:08;;;;;;;7.75;6.57;;;;;;;;;;5021531;28;20105;-66
2023/05/12 02:04:33;;;;;;;8.35;6.53;;;;;;;;;;5020731;28;20099;-66
2023/05/12 02:07:00;;;;;;;8.50;6.40;;;;;;;;;;5021399;28;20037;-66
2023/05/12 02:09:26;;;;;;;7.43;6.53;;;;;;;;;;5022074;28;20056;-65
2023/05/12 02:11:56;;;;;;;12.98;6.22;;;;;;;;;;5026562;28;20032;-65
2023/05/12 02:14:21;;;;;;;7.38;5.88;;;;;;;;;;5010396;28;20040;-66
2023/05/12 02:16:51;;;;;;;7.32;6.72;;;;;;;;;;5021483;28;20045;-66
2023/05/12 02:19:20;;;;;;;18.67;7.40;;;;;;;;;;5022584;28;20176;-66
2023/05/12 02:21:47;;;;;;;7.43;6.82;;;;;;;;;;5026972;28;20033;-66
2023/05/12 02:24:12;;;;;;;6.72;6.22;;;;;;;;;;5037120;28;20041;-65
2023/05/12 02:26:38;;;;;;;7.28;6.45;;;;;;;;;;5027885;28;20029;-66
2023/05/12 02:29:04;;;;;;;6.90;6.40;;;;;;;;;;5021618;28;20399;-66
2023/05/12 02:31:30;;;;;;;6.18;5.78;;;;;;;;;;5027939;28;20500;-66
2023/05/12 02:33:57;;;;;;;7.00;6.40;;;;;;;;;;5018052;28;20503;-65
2023/05/12 02:36:23;;;;;;;6.45;5.95;;;;;;;;;;5025355;28;20546;-66
2023/05/12 02:38:48;;;;;;;7.45;6.75;;;;;;;;;;5040044;28;20050;-66
2023/05/12 02:41:14;;;;;;;7.53;6.93;;;;;;;;;;5041575;28;20033;-65
2023/05/12 02:43:40;;;;;;;7.32;6.72;;;;;;;;;;5029202;28;20032;-65
2023/05/12 02:46:06;;;;;;;7.00;6.40;;;;;;;;;;5024643;28;20045;-66
2023/05/12 02:48:31;;;;;;;8.93;7.55;;;;;;;;;;5037469;28;20121;-66
2023/05/12 02:50:57;;;;;;;8.43;6.75;;;;;;;;;;5022845;28;20103;-66
2023/05/12 02:53:23;;;;;;;7.57;6.88;;;;;;;;;;5026043;28;20171;-65
2023/05/12 02:55:49;;;;;;;7.07;6.47;;;;;;;;;;5024063;28;20064;-66
2023/05/12 02:58:14;;;;;;;7.35;6.70;;;;;;;;;;5020712;28;20611;-66
2023/05/12 03:00:40;;;;;;;6.63;6.13;;;;;;;;;;5025486;28;20033;-66
2023/05/12 03:03:06;;;;;;;7.50;6.80;;;;;;;;;;5039366;28;20468;-66
2023/05/12 03:05:31;;;;;;;6.72;6.10;;;;;;;;;;5015156;28;20559;-65
2023/05/12 03:07:57;;;;;;;7.47;6.88;;;;;;;;;;5021254;28;20116;-65
2023/05/12 03:10:23;;;;;;;6.05;5.57;;;;;;;;;;5025018;28;20068;-66
2023/05/12 03:12:49;;;;;;;6.70;6.15;;;;;;;;;;5038483;28;20120;-66
2023/05/12 03:15:14;;;;;;;7.20;6.60;;;;;;;;;;5021697;28;20591;-66
2023/05/12 03:17:40;;;;;;;6.65;6.13;;;;;;;;;;5023958;28;20036;-65
2023/05/12 03:20:07;;;;;;;7.13;6.43;;;;;;;;;;5039522;28;20040;-66
2023/05/12 03:22:32;;;;;;;7.18;6.50;;;;;;;;;;5035687;28;20107;-67
2023/05/12 03:24:58;;;;;;;7.82;6.95;;;;;;;;;;5021029;28;20145;-66
2023/05/12 03:27:24;;;;;;;7.10;6.50;;;;;;;;;;5025070;28;20110;-67
2023/05/12 03:29:49;;;;;;;5.80;5.40;;;;;;;;;;5041659;28;20040;-67
2023/05/12 03:32:15;;;;;;;8.18;7.00;;;;;;;;;;5006481;28;20041;-66
2023/05/12 03:34:41;;;;;;;7.03;5.90;;;;;;;;;;5036613;28;20037;-66
2023/05/12 03:37:07;;;;;;;7.18;6.55;;;;;;;;;;5034267;28;20041;-66
2023/05/12 03:39:33;;;;;;;7.03;6.43;;;;;;;;;;5017980;28;20057;-66
2023/05/12 03:41:58;;;;;;;7.63;6.93;;;;;;;;;;5025061;28;20041;-66
2023/05/12 03:44:24;;;;;;;6.40;5.90;;;;;;;;;;5023345;28;20493;-66
2023/05/12 03:46:49;;;;;;;6.65;6.15;;;;;;;;;;5039170;28;20045;-66
2023/05/12 03:49:16;;;;;;;6.68;6.07;;;;;;;;;;5020698;28;20026;-66
2023/05/12 03:51:41;;;;;;;7.18;6.50;;;;;;;;;;5037371;28;20037;-66
2023/05/12 03:54:07;;;;;;;6.53;5.93;;;;;;;;;;5040467;28;20038;-65
2023/05/12 03:56:33;;;;;;;6.78;6.18;;;;;;;;;;5022248;28;20124;-66
2023/05/12 03:58:58;;;;;;;7.25;6.65;;;;;;;;;;5032719;28;20540;-66
2023/05/12 04:01:24;;;;;;;10.55;6.30;;;;;;;;;;5023532;28;20218;-66
2023/05/12 04:03:49;;;;;;;7.38;6.78;;;;;;;;;;5021498;28;20127;-66
2023/05/12 04:06:15;;;;;;;7.80;7.20;;;;;;;;;;5039364;28;20119;-66
2023/05/12 04:08:41;;;;;;;6.53;6.00;;;;;;;;;;5034409;28;20069;-65
2023/05/12 04:11:06;;;;;;;6.75;6.25;;;;;;;;;;5023272;28;20045;-65
2023/05/12 04:13:32;;;;;;;6.60;6.10;;;;;;;;;;5018407;28;20037;-66
2023/05/12 04:15:58;;;;;;;7.38;6.78;;;;;;;;;;5014595;28;20134;-66
2023/05/12 04:18:25;;;;;;;11.93;6.53;;;;;;;;;;5033884;28;20452;-66
2023/05/12 04:20:52;;;;;;;8.38;6.22;;;;;;;;;;5037066;28;20380;-66
2023/05/12 04:23:17;;;;;;;7.28;6.68;;;;;;;;;;5034848;28;20033;-66
2023/05/12 04:25:43;;;;;;;7.18;6.53;;;;;;;;;;5021423;28;20029;-66
2023/05/12 04:28:09;;;;;;;7.13;6.53;;;;;;;;;;5025621;28;20039;-66
2023/05/12 04:30:37;;;;;;;7.65;6.97;;;;;;;;;;5018378;28;20112;-67
2023/05/12 04:33:03;;;;;;;7.30;6.70;;;;;;;;;;5022656;28;20029;-66
2023/05/12 04:35:28;;;;;;;7.38;6.78;;;;;;;;;;5025593;28;20047;-66
2023/05/12 04:37:55;;;;;;;7.55;6.95;;;;;;;;;;5025915;28;20496;-66
2023/05/12 04:40:20;;;;;;;6.80;6.30;;;;;;;;;;5036304;28;20041;-66
2023/05/12 04:42:46;;;;;;;7.70;7.00;;;;;;;;;;5025110;28;20108;-66
2023/05/12 04:45:13;;;;;;;7.53;6.82;;;;;;;;;;5027617;28;20033;-66
2023/05/12 04:47:39;;;;;;;7.35;6.60;;;;;;;;;;5024479;28;20072;-66
2023/05/12 04:50:05;;;;;;;6.45;5.95;;;;;;;;;;5022681;28;20064;-66
2023/05/12 04:52:31;;;;;;;7.10;6.60;;;;;;;;;;5041497;28;20040;-66
2023/05/12 04:54:57;;;;;;;6.93;6.32;;;;;;;;;;5025322;28;20037;-66
2023/05/12 04:57:23;;;;;;;7.00;6.40;;;;;;;;;;5027211;28;20052;-65
2023/05/12 04:59:49;;;;;;;7.70;6.97;;;;;;;;;;5023648;28;20068;-66
2023/05/12 05:02:15;;;;;;;7.03;6.45;;;;;;;;;;5020439;28;20068;-66
2023/05/12 05:04:41;;;;;;;7.55;6.88;;;;;;;;;;5027686;28;20037;-67
2023/05/12 05:07:07;;;;;;;7.78;6.97;;;;;;;;;;5024493;28;20037;-66
2023/05/12 05:09:33;;;;;;;7.18;6.65;;;;;;;;;;5027758;28;20099;-66
2023/05/12 05:11:58;;;;;;;6.82;6.38;;;;;;;;;;5024815;28;20396;-66
2023/05/12 05:14:24;;;;;;;7.80;7.05;;;;;;;;;;5044893;28;20045;-66
2023/05/12 05:16:49;;;;;;;9.73;7.05;;;;;;;;;;5025283;28;20041;-66
2023/05/12 05:19:15;;;;;;;7.25;6.75;;;;;;;;;;5040445;28;20040;-66
2023/05/12 05:21:41;;;;;;;7.28;6.68;;;;;;;;;;5024726;28;20029;-66
2023/05/12 05:24:07;;;;;;;7.57;6.97;;;;;;;;;;5026927;28;20612;-66
2023/05/12 05:26:33;;;;;;;10.80;6.57;;;;;;;;;;5025147;28;20564;-66
2023/05/12 05:28:58;;;;;;;7.65;7.05;;;;;;;;;;5040680;28;20105;-66
2023/05/12 05:31:27;;;;;;;8.32;7.25;;;;;;;;;;5027423;28;20091;-67
2023/05/12 05:33:53;;;;;;;7.75;7.03;;;;;;;;;;5021112;28;20485;-66
2023/05/12 05:36:25;;;;;;;7.78;6.90;;;;;;;;;;5026257;28;20033;-66
2023/05/12 05:38:50;;;;;;;7.70;7.00;;;;;;;;;;5026128;28;20033;-66
2023/05/12 05:41:16;;;;;;;7.68;7.10;;;;;;;;;;5041873;28;20033;-66
2023/05/12 05:43:42;;;;;;;7.65;7.03;;;;;;;;;;5019150;28;20405;-67
2023/05/12 05:46:07;;;;;;;7.95;7.35;;;;;;;;;;5024253;28;20067;-66
2023/05/12 05:48:35;;;;;;;8.98;6.97;;;;;;;;;;5018889;28;20123;-66
2023/05/12 05:51:01;;;;;;;8.25;7.20;;;;;;;;;;5023912;28;20033;-66
2023/05/12 05:53:27;;;;;;;9.15;7.60;;;;;;;;;;5025023;28;20068;-65
2023/05/12 05:55:53;;;;;;;8.27;7.55;;;;;;;;;;5027741;28;20582;-65
2023/05/12 05:58:18;;;;;;;8.50;7.80;;;;;;;;;;5042591;28;20033;-66
2023/05/12 06:00:46;;;;;;;8.57;7.85;;;;;;;;;;5025320;28;20675;-65
2023/05/12 06:03:12;;;;;;;7.63;7.03;;;;;;;;;;5040543;28;20121;-65
2023/05/12 06:05:40;;;;;;;8.95;8.15;;;;;;;;;;5022145;28;20401;-69
2023/05/12 06:08:08;;;;;;;12.87;8.70;;;;;;;;;;5023372;28;20033;-65
2023/05/12 06:10:34;;;;;;;8.52;7.72;;;;;;;;;;5040020;28;20036;-66
2023/05/12 06:12:59;;;;;;;8.70;7.90;;;;;;;;;;5021720;28;20037;-65
2023/05/12 06:15:25;;;;;;;8.40;7.63;;;;;;;;;;5017557;28;20648;-65
2023/05/12 06:17:50;;;;;;;9.23;7.95;;;;;;;;;;5033691;28;20090;-66
2023/05/12 06:20:16;;;;;;;9.15;7.72;;;;;;;;;;5032060;28;20036;-66
2023/05/12 06:22:43;;;;;;;8.35;7.55;;;;;;;;;;5035256;28;20025;-66
2023/05/12 06:25:09;;;;;;;8.70;7.90;;;;;;;;;;5037686;28;20101;-66
2023/05/12 06:27:36;;;;;;;8.52;7.72;;;;;;;;;;5022333;28;20116;-66
2023/05/12 06:30:03;;;;;;;8.25;7.45;;;;;;;;;;5020777;28;20171;-66
2023/05/12 06:32:28;;;;;;;7.93;7.32;;;;;;;;;;5032629;28;20059;-66
2023/05/12 06:34:54;;;;;;;8.65;7.85;;;;;;;;;;5037576;28;20437;-66
2023/05/12 06:37:19;;;;;;;7.90;7.10;;;;;;;;;;5036823;28;20471;-66
2023/05/12 06:39:45;;;;;;;10.38;8.50;;;;;;;;;;5019398;28;20040;-66
2023/05/12 06:42:10;;;;;;;8.88;7.28;;;;;;;;;;5037513;28;20039;-66
2023/05/12 06:44:40;;;;;;;10.02;7.90;;;;;;;;;;5015715;28;20033;-66
2023/05/12 06:47:06;;;;;;;9.73;8.15;;;;;;;;;;5017358;28;20029;-66
2023/05/12 06:49:34;;;;;;;9.15;8.30;;;;;;;;;;5025697;28;20420;-66
2023/05/12 06:52:00;;;;;;;8.68;7.88;;;;;;;;;;5038799;28;20442;-65
2023/05/12 06:54:25;;;;;;;7.25;6.70;;;;;;;;;;5025321;28;20139;-66
2023/05/12 06:56:51;;;;;;;7.57;6.97;;;;;;;;;;5040692;28;20033;-66
2023/05/12 06:59:17;;;;;;;7.75;7.05;;;;;;;;;;5039157;28;20055;-66
2023/05/12 07:01:42;;;;;;;7.85;7.25;;;;;;;;;;5034042;28;20033;-66
2023/05/12 07:04:08;;;;;;;7.70;7.00;;;;;;;;;;5038933;28;20119;-66
2023/05/12 07:06:33;;;;;;;6.80;6.22;;;;;;;;;;5041468;28;20408;-66
2023/05/12 07:08:59;;;;;;;6.22;5.72;;;;;;;;;;5032255;28;20025;-66
2023/05/12 07:11:24;;;;;;;7.43;6.80;;;;;;;;;;5037354;28;20038;-65
2023/05/12 07:13:50;;;;;;;6.57;6.07;;;;;;;;;;5037429;28;20036;-66
2023/05/12 07:16:17;;;;;;;6.80;6.20;;;;;;;;;;5039116;28;20120;-66
2023/05/12 07:18:43;;;;;;;7.22;6.53;;;;;;;;;;5037160;28;20029;-66
2023/05/12 07:21:09;;;;;;;7.28;6.63;;;;;;;;;;5028497;28;20087;-65
2023/05/12 07:23:35;;;;;;;7.47;6.65;;;;;;;;;;5027793;28;20034;-66
2023/05/12 07:26:02;;;;;;;6.85;6.35;;;;;;;;;;5028647;28;20064;-66
2023/05/12 07:28:31;;;;;;;6.78;6.28;;;;;;;;;;5033688;28;20116;-66
2023/05/12 07:30:59;;;;;;;6.82;6.30;;;;;;;;;;5036268;28;20021;-66
2023/05/12 07:33:25;;;;;;;6.90;6.20;;;;;;;;;;5041954;28;20400;-65
2023/05/12 07:35:50;;;;;;;7.78;6.90;;;;;;;;;;5036782;28;20029;-66
2023/05/12 07:38:16;;;;;;;6.82;6.32;;;;;;;;;;5032709;28;20041;-66
2023/05/12 07:40:43;;;;;;;6.78;6.18;;;;;;;;;;5036431;28;20041;-66
2023/05/12 07:43:09;;;;;;;6.43;5.93;;;;;;;;;;5036269;28;20037;-66
2023/05/12 07:45:35;;;;;;;7.13;6.63;;;;;;;;;;5036060;28;20493;-66
2023/05/12 07:48:01;;;;;;;6.90;6.30;;;;;;;;;;5032562;28;20040;-66
2023/05/12 07:50:26;;;;;;;6.55;6.15;;;;;;;;;;5032598;28;20037;-67
2023/05/12 07:52:52;;;;;;;6.00;5.50;;;;;;;;;;5034396;28;20501;-66
2023/05/12 07:55:20;;;;;;;6.03;5.57;;;;;;;;;;5028142;28;20040;-67
2023/05/12 07:57:46;;;;;;;5.30;5.00;;;;;;;;;;5034031;28;20135;-67
2023/05/12 08:00:13;;;;;;;5.35;5.05;;;;;;;;;;5024863;28;20138;-67
2023/05/12 08:02:40;;;;;;;5.32;5.03;;;;;;;;;;5035293;28;20400;-67
2023/05/12 08:05:08;;;;;;;5.85;5.45;;;;;;;;;;5041443;28;20037;-67
2023/05/12 08:07:34;;;;;;;5.40;5.10;;;;;;;;;;5036413;28;20045;-67
2023/05/12 08:10:00;;;;;;;6.32;5.20;;;;;;;;;;5039077;28;20037;-67
2023/05/12 08:12:25;;;;;;;5.82;5.43;;;;;;;;;;5040634;28;20523;-66
2023/05/12 08:14:51;;;;;;;6.28;5.78;;;;;;;;;;5043082;28;20033;-67
2023/05/12 08:17:16;;;;;;;5.80;5.40;;;;;;;;;;5041629;28;20103;-67
2023/05/12 08:19:42;;;;;;;5.82;5.43;;;;;;;;;;5036082;28;20032;-67
2023/05/12 08:22:08;;;;;;;6.55;6.10;;;;;;;;;;5042097;28;20572;-67
2023/05/12 08:24:33;;;;;;;5.70;5.30;;;;;;;;;;5042370;28;20512;-66
2023/05/12 08:26:59;;;;;;;6.30;5.85;;;;;;;;;;5043420;28;20090;-66
2023/05/12 08:29:24;;;;;;;6.18;5.72;;;;;;;;;;5042174;28;20052;-66
2023/05/12 08:31:50;;;;;;;5.63;5.22;;;;;;;;;;5040780;28;20049;-66
2023/05/12 08:34:15;;;;;;;6.47;5.97;;;;;;;;;;5025491;28;20036;-67
2023/05/12 08:36:41;;;;;;;6.20;5.78;;;;;;;;;;5040979;28;20090;-66
2023/05/12 08:39:09;;;;;;;6.40;6.00;;;;;;;;;;5039577;28;20640;-66
2023/05/12 08:41:38;;;;;;;6.18;5.78;;;;;;;;;;5040494;28;20064;-66
2023/05/12 08:44:05;;;;;;;6.10;5.70;;;;;;;;;;5039696;28;20043;-66
2023/05/12 08:46:31;;;;;;;6.70;6.13;;;;;;;;;;5041992;28;20398;-66
2023/05/12 08:48:59;;;;;;;6.20;5.80;;;;;;;;;;5041514;28;20769;-65
2023/05/12 08:51:27;;;;;;;6.18;5.78;;;;;;;;;;5038363;28;20124;-68
2023/05/12 08:53:54;;;;;;;6.32;5.82;;;;;;;;;;5042198;28;20037;-68
2023/05/12 08:56:21;;;;;;;6.32;5.82;;;;;;;;;;5025797;28;20086;-68
2023/05/12 08:58:47;;;;;;;6.47;5.97;;;;;;;;;;5041578;28;20043;-68
2023/05/12 09:01:15;;;;;;;6.70;6.20;;;;;;;;;;5038938;28;20036;-69
2023/05/12 09:03:41;;;;;;;6.30;5.80;;;;;;;;;;5039990;28;20043;-69
2023/05/12 09:06:08;;;;;;;6.47;5.88;;;;;;;;;;5043885;28;20108;-68
2023/05/12 09:08:34;;;;;;;5.85;5.45;;;;;;;;;;5039400;28;20073;-69
2023/05/12 09:11:00;;;;;;;6.70;6.10;;;;;;;;;;5039748;28;20028;-69
2023/05/12 09:13:39;;;;;;;6.43;5.93;;;;;;;;;;5042777;28;20218;-69
2023/05/12 09:16:10;;;;;;;6.95;6.35;;;;;;;;;;5036905;28;20075;-69
2023/05/12 09:18:56;;;;;;;6.00;5.60;;;;;;;;;;5039661;28;20032;-67
2023/05/12 09:21:22;;;;;;;5.97;5.32;;;;;;;;;;5042123;28;20071;-69
2023/05/12 09:23:54;;;;;;;5.80;5.40;;;;;;;;;;5038192;28;20069;-69
2023/05/12 09:26:21;;;;;;;6.05;5.60;;;;;;;;;;5028254;28;20033;-69
2023/05/12 09:28:47;;;;;;;7.40;6.10;;;;;;;;;;5042543;28;20065;-69
2023/05/12 09:31:21;;;;;;;5.63;5.30;;;;;;;;;;5038718;28;20041;-69
2023/05/12 09:33:47;;;;;;;5.53;5.22;;;;;;;;;;5041745;28;20532;-69
2023/05/12 09:36:21;;;;;;;5.72;5.32;;;;;;;;;;5037497;28;20095;-69
2023/05/12 09:39:03;;;;;;;5.70;5.30;;;;;;;;;;5042507;28;20524;-69
2023/05/12 09:41:39;;;;;;;5.82;5.30;;;;;;;;;;5037455;28;20065;-68
2023/05/12 09:44:06;;;;;;;5.72;5.13;;;;;;;;;;5037859;28;20072;-69
2023/05/12 09:46:32;;;;;;;5.90;5.40;;;;;;;;;;5039814;28;20396;-69
2023/05/12 09:48:58;;;;;;;5.40;5.00;;;;;;;;;;5040271;28;20035;-68
2023/05/12 09:51:25;;;;;;;5.50;5.15;;;;;;;;;;5039049;28;20471;-69
2023/05/12 09:53:52;;;;;;;5.68;5.28;;;;;;;;;;5034434;28;20033;-68
2023/05/12 09:56:18;;;;;;;6.18;5.78;;;;;;;;;;5040472;28;20033;-68
2023/05/12 09:58:46;;;;;;;6.03;5.63;;;;;;;;;;5043526;28;20048;-68
2023/05/12 10:01:14;;;;;;;5.97;5.40;;;;;;;;;;5020832;28;20038;-68
2023/05/12 10:03:41;;;;;;;5.93;5.53;;;;;;;;;;5037854;28;20056;-68
2023/05/12 10:06:11;;;;;;;5.95;5.55;;;;;;;;;;5043123;28;20040;-68
2023/05/12 10:08:43;;;;;;;5.60;5.30;;;;;;;;;;5044164;28;20099;-68
2023/05/12 10:11:09;;;;;;;6.35;5.75;;;;;;;;;;5037998;28;20029;-68
2023/05/12 10:13:35;;;;;;;5.85;5.53;;;;;;;;;;5041159;28;20033;-68
2023/05/12 10:16:02;;;;;;;6.47;6.07;;;;;;;;;;5039424;28;20056;-68
2023/05/12 10:18:28;;;;;;;5.82;5.43;;;;;;;;;;5042147;28;20452;-68
2023/05/12 10:20:55;;;;;;;5.80;5.40;;;;;;;;;;5039301;28;20448;-68
2023/05/12 10:23:21;;;;;;;6.05;5.70;;;;;;;;;;5033488;28;20065;-68
2023/05/12 10:25:48;;;;;;;5.22;4.93;;;;;;;;;;5040425;28;20071;-68
2023/05/12 10:28:14;;;;;;;5.00;4.70;;;;;;;;;;5039226;28;20065;-68
2023/05/12 10:30:41;;;;;;;4.93;4.40;;;;;;;;;;5016299;28;20610;-68
2023/05/12 10:33:08;;;;;;;5.28;4.80;;;;;;;;;;5031919;28;20044;-68
2023/05/12 10:35:35;;;;;;;5.38;5.00;;;;;;;;;;5032287;28;20090;-68
2023/05/12 10:38:10;;;;;;;5.32;4.93;;;;;;;;;;5036443;28;20033;-68
2023/05/12 10:40:36;;;;;;;5.53;5.13;;;;;;;;;;5040910;28;20095;-67
2023/05/12 10:43:02;;;;;;;5.70;5.30;;;;;;;;;;5039958;28;20098;-68
2023/05/12 10:45:33;;;;;;;5.38;5.07;;;;;;;;;;5034878;28;20030;-67
2023/05/12 10:48:06;;;;;;;5.78;5.40;;;;;;;;;;5028243;28;20094;-67
2023/05/12 10:50:32;;;;;;;6.40;6.00;;;;;;;;;;5040527;28;20025;-68
2023/05/12 10:53:00;;;;;;;;;;;;;;;;;;5037868;28;20083;-68
2023/05/12 10:55:31;;;;;;;6.50;6.00;;;;;;;;;;5036721;28;19978;-67
2023/05/12 10:58:10;;;;;;;10.45;6.43;;;;;;;;;;5040874;28;20028;-66
2023/05/12 11:00:44;;;;;;;7.32;6.65;;;;;;;;;;5042759;28;20046;-65
2023/05/12 11:03:15;;;;;;;7.38;6.88;;;;;;;;;;5035379;28;20124;-66
2023/05/12 11:05:42;;;;;;;7.38;6.78;;;;;;;;;;5031418;28;20150;-67
2023/05/12 11:08:07;;;;;;;7.47;6.88;;;;;;;;;;5038065;28;20053;-67
2023/05/12 11:10:33;;;;;;;7.10;6.60;;;;;;;;;;5040897;28;20037;-67
2023/05/12 11:12:59;;;;;;;6.82;6.32;;;;;;;;;;5038768;28;20149;-67
2023/05/12 11:15:26;;;;;;;6.88;6.22;;;;;;;;;;5037761;28;20044;-66
2023/05/12 11:17:51;;;;;;;6.75;6.20;;;;;;;;;;5040149;28;20377;-66
2023/05/12 11:20:24;;;;;;;6.32;5.93;;;;;;;;;;5038150;28;20048;-66
2023/05/12 11:22:51;;;;;;;6.70;6.20;;;;;;;;;;5036499;28;20041;-66
2023/05/12 11:25:17;;;;;;;6.30;5.90;;;;;;;;;;5036662;28;20029;-66
2023/05/12 11:27:47;;;;;;;6.45;6.05;;;;;;;;;;5040373;28;20035;-67
2023/05/12 11:30:13;;;;;;;6.88;6.38;;;;;;;;;;5036276;28;20025;-66
2023/05/12 11:32:39;;;;;;;6.28;5.78;;;;;;;;;;5032580;28;20598;-65
2023/05/12 11:35:13;;;;;;;6.70;6.20;;;;;;;;;;5037548;28;20543;-66
2023/05/12 11:37:40;;;;;;;6.55;6.07;;;;;;;;;;5037271;28;20052;-66
2023/05/12 11:40:16;;;;;;;5.80;5.50;;;;;;;;;;5037646;28;20055;-67
2023/05/12 11:42:47;;;;;;;6.40;6.05;;;;;;;;;;5041586;28;20040;-66
2023/05/12 11:45:29;;;;;;;6.60;6.20;;;;;;;;;;5036225;28;20029;-66
2023/05/12 11:48:12;;;;;;;7.32;6.72;;;;;;;;;;5021945;28;20041;-66
2023/05/12 11:50:45;;;;;;;5.70;5.40;;;;;;;;;;5038463;28;20028;-66
2023/05/12 11:53:16;;;;;;;6.35;5.95;;;;;;;;;;5034787;28;20477;-66
2023/05/12 11:55:52;;;;;;;5.97;5.68;;;;;;;;;;5041984;28;20040;-66
2023/05/12 11:58:20;;;;;;;6.60;6.20;;;;;;;;;;5037696;28;20037;-65
2023/05/12 12:00:47;;;;;;;5.80;5.50;;;;;;;;;;5036407;28;20455;-66
2023/05/12 12:03:14;;;;;;;6.13;5.72;;;;;;;;;;5035110;28;20029;-66
2023/05/12 12:05:44;;;;;;;6.10;5.80;;;;;;;;;;5037917;28;20047;-66
2023/05/12 12:08:14;;;;;;;6.10;5.70;;;;;;;;;;5038340;28;20040;-66
2023/05/12 12:10:46;;;;;;;5.93;5.53;;;;;;;;;;5032468;28;20120;-66
2023/05/12 12:13:22;;;;;;;6.05;5.57;;;;;;;;;;5034102;28;20029;-66
2023/05/12 12:15:49;;;;;;;5.93;5.63;;;;;;;;;;5034767;28;20060;-66
2023/05/12 12:18:15;;;;;;;6.20;5.70;;;;;;;;;;5033249;28;20040;-66
2023/05/12 12:20:42;;;;;;;5.57;5.28;;;;;;;;;;5035242;28;20022;-67
2023/05/12 12:23:07;;;;;;;6.03;5.63;;;;;;;;;;5035909;28;20041;-66
2023/05/12 12:25:34;;;;;;;5.97;5.57;;;;;;;;;;5037370;28;20033;-66
2023/05/12 12:28:00;;;;;;;5.65;5.35;;;;;;;;;;5035027;28;20072;-66
2023/05/12 12:30:26;;;;;;;6.10;5.70;;;;;;;;;;5037101;28;20500;-66
2023/05/12 12:32:51;;;;;;;5.65;5.30;;;;;;;;;;5031198;28;20563;-66
2023/05/12 12:35:17;;;;;;;5.53;5.22;;;;;;;;;;5031887;28;20091;-66
2023/05/12 12:37:50;;;;;;;5.30;5.00;;;;;;;;;;5039218;28;20041;-67
2023/05/12 12:40:16;;;;;;;5.03;4.82;;;;;;;;;;5032039;28;20053;-67
2023/05/12 12:42:42;;;;;;;5.57;5.18;;;;;;;;;;5036798;28;20033;-67
2023/05/12 12:45:08;;;;;;;5.93;5.10;;;;;;;;;;5016498;28;20561;-67
2023/05/12 12:47:35;;;;;;;5.40;5.10;;;;;;;;;;5037740;28;20044;-66
2023/05/12 12:50:01;;;;;;;4.90;4.60;;;;;;;;;;5035136;28;20028;-67
2023/05/12 12:52:27;;;;;;;5.22;4.93;;;;;;;;;;5036660;28;20432;-67
2023/05/12 12:54:53;;;;;;;5.50;5.20;;;;;;;;;;5037596;28;20051;-67
2023/05/12 12:57:19;;;;;;;5.47;5.18;;;;;;;;;;5040850;28;20138;-67
2023/05/12 12:59:45;;;;;;;5.43;5.00;;;;;;;;;;5037006;28;20138;-67
2023/05/12 13:02:11;;;;;;;5.40;5.10;;;;;;;;;;5037606;28;20066;-66
2023/05/12 13:04:37;;;;;;;5.40;5.10;;;;;;;;;;5040185;28;20033;-67
2023/05/12 13:07:02;;;;;;;5.97;5.60;;;;;;;;;;5018047;28;20578;-67
2023/05/12 13:09:28;;;;;;;5.90;5.60;;;;;;;;;;5038141;28;20489;-66
2023/05/12 13:11:53;;;;;;;5.75;5.45;;;;;;;;;;5041290;28;20116;-67
2023/05/12 13:14:20;;;;;;;5.40;5.10;;;;;;;;;;5038731;28;20492;-67
2023/05/12 13:16:45;;;;;;;5.88;5.57;;;;;;;;;;5032085;28;20741;-67
2023/05/12 13:19:11;;;;;;;6.20;5.85;;;;;;;;;;5036726;28;20043;-66
2023/05/12 13:21:36;;;;;;;6.50;6.00;;;;;;;;;;5027828;28;20033;-66
2023/05/12 13:24:02;;;;;;;5.93;5.63;;;;;;;;;;5038323;28;20041;-67
2023/05/12 13:26:28;;;;;;;5.85;5.55;;;;;;;;;;5038081;28;20595;-67
2023/05/12 13:28:53;;;;;;;5.75;5.38;;;;;;;;;;5038962;28;20036;-67
2023/05/12 13:31:19;;;;;;;6.40;5.90;;;;;;;;;;5036299;28;20033;-67
2023/05/12 13:33:45;;;;;;;6.35;5.95;;;;;;;;;;5035431;28;20485;-67
2023/05/12 13:36:11;;;;;;;6.03;5.70;;;;;;;;;;5040551;28;20031;-67
2023/05/12 13:38:37;;;;;;;5.82;5.50;;;;;;;;;;5039257;28;20061;-67
2023/05/12 13:41:02;;;;;;;6.10;5.70;;;;;;;;;;5003865;28;20040;-67
2023/05/12 13:43:28;;;;;;;6.75;6.35;;;;;;;;;;5038093;28;20052;-67
2023/05/12 13:45:53;;;;;;;6.30;5.90;;;;;;;;;;5033924;28;20037;-67
2023/05/12 13:48:19;;;;;;;6.10;5.57;;;;;;;;;;5022082;28;20059;-67
2023/05/12 13:50:45;;;;;;;6.30;5.90;;;;;;;;;;5020875;28;20029;-67
2023/05/12 13:53:11;;;;;;;6.32;5.93;;;;;;;;;;5037139;28;20362;-68
2023/05/12 13:55:37;;;;;;;6.18;5.63;;;;;;;;;;5032299;28;20497;-67
2023/05/12 13:58:04;;;;;;;6.40;6.00;;;;;;;;;;5036977;28;20037;-67
2023/05/12 14:00:29;;;;;;;6.60;6.20;;;;;;;;;;5038710;28;20051;-67
2023/05/12 14:02:56;;;;;;;6.15;5.75;;;;;;;;;;5031617;28;20451;-68
2023/05/12 14:05:22;;;;;;;6.32;5.90;;;;;;;;;;5034181;28;20131;-67
2023/05/12 14:07:48;;;;;;;6.35;5.95;;;;;;;;;;5039250;28;20365;-67
2023/05/12 14:10:14;;;;;;;7.05;6.28;;;;;;;;;;5032695;28;20037;-67
2023/05/12 14:12:41;;;;;;;6.85;6.38;;;;;;;;;;5036967;28;20037;-67
2023/05/12 14:15:08;;;;;;;6.63;6.13;;;;;;;;;;5036925;28;20378;-68
2023/05/12 14:17:34;;;;;;;7.20;6.70;;;;;;;;;;5035015;28;20041;-67
2023/05/12 14:20:00;;;;;;;6.78;6.38;;;;;;;;;;5033738;28;20038;-68
2023/05/12 14:22:25;;;;;;;6.93;6.32;;;;;;;;;;5040063;28;20163;-67
2023/05/12 14:24:52;;;;;;;7.68;7.18;;;;;;;;;;5028436;28;20881;-67
2023/05/12 14:27:17;;;;;;;7.70;7.00;;;;;;;;;;5038792;28;20075;-68
2023/05/12 14:29:43;;;;;;;13.35;6.80;;;;;;;;;;5034010;28;20060;-67
2023/05/12 14:32:08;;;;;;;8.25;7.30;;;;;;;;;;5039812;28;20033;-68
2023/05/12 14:34:34;;;;;;;7.78;7.18;;;;;;;;;;5035632;28;20400;-67
2023/05/12 14:37:00;;;;;;;7.55;7.05;;;;;;;;;;5039213;28;20115;-68
2023/05/12 14:39:25;;;;;;;7.28;6.78;;;;;;;;;;5037549;28;20029;-67
2023/05/12 14:41:52;;;;;;;8.30;7.60;;;;;;;;;;5023948;28;20044;-67